Kezdőlap
METAR-TAF:

METAR-TAF

Repülőterek :

Kolozsvári nemzetközi repülőtér

Kolozsvár, Románia

földrajzi szélesség: 46-47N, földrajzi hosszúság: 023-34E, magasság: 315 m

Jelenlegi meteorológiai megfigyelések

A jelentés 16 perccel ezelõtt készült, 01:30 UTC
Kelet-északkeleti szél 6 kt
Hőmérséklet 9°C
Páratartalom 66%
Légköri nyomás 1022 hPa
Látótávolság 10 km, vagy több
felhőtlen 1500 m magasságban, és nincs gomolyfelhõ

METAR: LRCL 250130Z 07006KT CAVOK 09/03 Q1022

Idő: 04:46 (01:46 UTC)

Előrejelzés

A jelentés 2 órával és 46 perccel ezelõtt készült, 23:00 UTC
Az előrejelzés 25-én 00 óra UTC és 25-én 09 óra UTC között érvényes
Keleti szél 7 kt
Látótávolság 10 km, vagy több
felhőtlen 1500 m magasságban, és nincs gomolyfelhõ
Valószínűség 40% :
25-én 06 óra UTC és 25-én 09 óra UTC között ideiglenes
Szórványos felhőzet 4000 lábon, Cumulonimbus.

TAF: LRCL 242300Z 2500/2509 10007KT CAVOK PROB40 TEMPO 2506/2509 SCT040CB

Meteorológiai megfigyelések és előrejelzések több, mint 4000 repülőtéren (METAR és TAF jelentéseket).

A térképen piros és sárga pontok jelzik az elérhető meteorológiai állomásokat.

Mozgassa az egeret a pont fölött, hogy megjelenjen az állomás neve.

Azután kattintson az időjárási megfigyelések és előrejelzések megtekintéséhez.

A térkép megváltoztatása: kattintson a fekete keresztel jelölt zöld gombra ráközelítéshez, a vonallal jelölt zöld gombra távolításhoz, vagy a zöld nyilakra a szomszédos térképek eléréséhez.


METAR-TAF: